VNKT METAR

Available data for VNKT from the past hour
KATHMANDU INTL A
Metar
VNKT 281020Z 00000KT 8000 FEW015 FE025CB SCT030 BKN100 25/17 Q1009 NOSIG CB TO W
TAF
TAF VNKT 280500Z 2806/2906 24005KT 9000 FEW020 SCT100 BECMG 2807/2809 28010KT 8000 FEW025 SCT030 BKN100 PROB40 2808/2812 VRB12KT 4000 -TSRA FEW025CB OVC090 BECMG 2814/2815 00000KT 6000 FEW020 SCT100 BECMG 2900/2902 4000 BR FEW015 SCT025 BECMG 2904/2905 20005KT 6000 FEW020 SCT100

WARNING: the data listed  above is for informational purposes only and should be confirmed from official sources. Data presented here on this page are fetched from Aviation weather data from NOAA’s Aviation Digital Data Service.

How to see the Details of METAR Reading.

Click on the Triangle beside of the Word METAR.(Refer to Fig.1)

VNKTmetar